sensor_id;sensor_type;location;lat;lon;timestamp;P1;durP1;ratioP1;P2;durP2;ratioP2
25391;SDS011;13329;48.402;11.718;2022-09-09T00:04:36;1.33;;;1.00;;
25391;SDS011;13329;48.402;11.718;2022-09-09T00:12:23;2.78;;;1.10;;
25391;SDS011;13329;48.402;11.718;2022-09-09T00:15:00;2.88;;;1.10;;
25391;SDS011;13329;48.402;11.718;2022-09-09T00:17:33;1.30;;;1.02;;
25391;SDS011;13329;48.402;11.718;2022-09-09T00:20:02;1.30;;;1.00;;
25391;SDS011;13329;48.402;11.718;2022-09-09T00:22:30;1.67;;;0.85;;
25391;SDS011;13329;48.402;11.718;2022-09-09T00:25:02;1.65;;;0.98;;
25391;SDS011;13329;48.402;11.718;2022-09-09T00:27:31;3.17;;;1.10;;
25391;SDS011;13329;48.402;11.718;2022-09-09T00:30:12;1.17;;;0.80;;
25391;SDS011;13329;48.402;11.718;2022-09-09T00:32:38;4.47;;;1.10;;
25391;SDS011;13329;48.402;11.718;2022-09-09T00:35:50;3.05;;;1.10;;
25391;SDS011;13329;48.402;11.718;2022-09-09T00:37:51;1.52;;;0.90;;
25391;SDS011;13329;48.402;11.718;2022-09-09T00:40:32;3.33;;;1.23;;
25391;SDS011;13329;48.402;11.718;2022-09-09T00:45:52;4.18;;;1.10;;
25391;SDS011;13329;48.402;11.718;2022-09-09T00:48:22;2.90;;;1.00;;
25391;SDS011;13329;48.402;11.718;2022-09-09T00:55:59;1.20;;;0.98;;
25391;SDS011;13329;48.402;11.718;2022-09-09T00:58:27;0.80;;;0.80;;
25391;SDS011;13329;48.402;11.718;2022-09-09T01:00:56;2.63;;;0.90;;
25391;SDS011;13329;48.402;11.718;2022-09-09T01:06:01;1.20;;;1.00;;
25391;SDS011;13329;48.402;11.718;2022-09-09T01:13:37;2.22;;;1.00;;
25391;SDS011;13329;48.402;11.718;2022-09-09T01:16:03;2.40;;;1.10;;
25391;SDS011;13329;48.402;11.718;2022-09-09T01:18:30;1.45;;;1.20;;
25391;SDS011;13329;48.402;11.718;2022-09-09T01:29:13;3.45;;;1.10;;
25391;SDS011;13329;48.402;11.718;2022-09-09T01:31:40;1.45;;;0.90;;
25391;SDS011;13329;48.402;11.718;2022-09-09T01:34:13;2.47;;;1.10;;
25391;SDS011;13329;48.402;11.718;2022-09-09T01:39:03;2.00;;;0.83;;
25391;SDS011;13329;48.402;11.718;2022-09-09T01:41:29;1.80;;;0.93;;
25391;SDS011;13329;48.402;11.718;2022-09-09T01:43:54;1.38;;;0.80;;
25391;SDS011;13329;48.402;11.718;2022-09-09T01:46:21;1.52;;;1.00;;
25391;SDS011;13329;48.402;11.718;2022-09-09T01:48:46;1.05;;;0.80;;
25391;SDS011;13329;48.402;11.718;2022-09-09T01:51:11;1.73;;;1.20;;
25391;SDS011;13329;48.402;11.718;2022-09-09T01:53:37;3.80;;;1.27;;
25391;SDS011;13329;48.402;11.718;2022-09-09T01:58:59;1.38;;;0.90;;
25391;SDS011;13329;48.402;11.718;2022-09-09T02:03:52;2.63;;;1.27;;
25391;SDS011;13329;48.402;11.718;2022-09-09T02:06:30;1.52;;;1.00;;
25391;SDS011;13329;48.402;11.718;2022-09-09T02:08:59;2.63;;;1.27;;
25391;SDS011;13329;48.402;11.718;2022-09-09T02:11:26;2.15;;;1.15;;
25391;SDS011;13329;48.402;11.718;2022-09-09T02:14:03;3.38;;;1.08;;
25391;SDS011;13329;48.402;11.718;2022-09-09T02:16:32;1.60;;;1.17;;
25391;SDS011;13329;48.402;11.718;2022-09-09T02:19:03;1.83;;;1.10;;
25391;SDS011;13329;48.402;11.718;2022-09-09T02:21:29;3.55;;;1.25;;
25391;SDS011;13329;48.402;11.718;2022-09-09T02:23:56;3.10;;;1.15;;
25391;SDS011;13329;48.402;11.718;2022-09-09T02:26:22;2.13;;;1.60;;
25391;SDS011;13329;48.402;11.718;2022-09-09T02:28:48;2.08;;;1.50;;
25391;SDS011;13329;48.402;11.718;2022-09-09T02:31:15;5.72;;;2.08;;
25391;SDS011;13329;48.402;11.718;2022-09-09T02:33:43;4.80;;;1.92;;
25391;SDS011;13329;48.402;11.718;2022-09-09T02:36:09;6.88;;;2.17;;
25391;SDS011;13329;48.402;11.718;2022-09-09T02:38:37;2.72;;;1.88;;
25391;SDS011;13329;48.402;11.718;2022-09-09T02:41:04;2.78;;;1.90;;
25391;SDS011;13329;48.402;11.718;2022-09-09T02:43:32;3.83;;;1.70;;
25391;SDS011;13329;48.402;11.718;2022-09-09T02:46:01;1.65;;;1.33;;
25391;SDS011;13329;48.402;11.718;2022-09-09T02:48:34;2.72;;;1.73;;
25391;SDS011;13329;48.402;11.718;2022-09-09T02:54:46;2.22;;;1.27;;
25391;SDS011;13329;48.402;11.718;2022-09-09T02:56:42;2.45;;;1.23;;
25391;SDS011;13329;48.402;11.718;2022-09-09T02:59:10;2.88;;;1.40;;
25391;SDS011;13329;48.402;11.718;2022-09-09T03:01:36;1.48;;;1.10;;
25391;SDS011;13329;48.402;11.718;2022-09-09T03:04:02;1.45;;;1.05;;
25391;SDS011;13329;48.402;11.718;2022-09-09T03:06:30;3.08;;;1.17;;
25391;SDS011;13329;48.402;11.718;2022-09-09T03:08:55;2.20;;;1.08;;
25391;SDS011;13329;48.402;11.718;2022-09-09T03:11:21;1.33;;;1.05;;
25391;SDS011;13329;48.402;11.718;2022-09-09T03:13:46;3.30;;;1.20;;
25391;SDS011;13329;48.402;11.718;2022-09-09T03:16:12;2.33;;;1.30;;
25391;SDS011;13329;48.402;11.718;2022-09-09T03:18:37;2.00;;;1.30;;
25391;SDS011;13329;48.402;11.718;2022-09-09T03:21:02;1.60;;;1.40;;
25391;SDS011;13329;48.402;11.718;2022-09-09T03:23:27;5.53;;;1.50;;
25391;SDS011;13329;48.402;11.718;2022-09-09T03:25:53;2.40;;;1.60;;
25391;SDS011;13329;48.402;11.718;2022-09-09T03:28:21;2.70;;;1.67;;
25391;SDS011;13329;48.402;11.718;2022-09-09T03:30:48;1.70;;;1.20;;
25391;SDS011;13329;48.402;11.718;2022-09-09T03:33:14;3.05;;;1.50;;
25391;SDS011;13329;48.402;11.718;2022-09-09T03:35:44;2.63;;;1.48;;
25391;SDS011;13329;48.402;11.718;2022-09-09T03:38:11;2.45;;;1.33;;
25391;SDS011;13329;48.402;11.718;2022-09-09T03:40:37;3.00;;;1.10;;
25391;SDS011;13329;48.402;11.718;2022-09-09T03:43:02;2.10;;;1.10;;
25391;SDS011;13329;48.402;11.718;2022-09-09T03:45:27;2.63;;;1.20;;
25391;SDS011;13329;48.402;11.718;2022-09-09T03:47:52;1.27;;;1.00;;
25391;SDS011;13329;48.402;11.718;2022-09-09T03:50:17;2.00;;;1.20;;
25391;SDS011;13329;48.402;11.718;2022-09-09T03:52:43;1.67;;;1.23;;
25391;SDS011;13329;48.402;11.718;2022-09-09T03:55:08;2.47;;;1.20;;
25391;SDS011;13329;48.402;11.718;2022-09-09T03:57:34;2.38;;;1.38;;
25391;SDS011;13329;48.402;11.718;2022-09-09T04:00:04;2.22;;;1.27;;
25391;SDS011;13329;48.402;11.718;2022-09-09T04:02:29;1.73;;;1.05;;
25391;SDS011;13329;48.402;11.718;2022-09-09T04:04:55;2.00;;;1.50;;
25391;SDS011;13329;48.402;11.718;2022-09-09T04:07:21;2.33;;;1.10;;
25391;SDS011;13329;48.402;11.718;2022-09-09T04:09:46;1.52;;;1.23;;
25391;SDS011;13329;48.402;11.718;2022-09-09T04:12:11;1.33;;;1.00;;
25391;SDS011;13329;48.402;11.718;2022-09-09T04:14:38;2.03;;;1.10;;
25391;SDS011;13329;48.402;11.718;2022-09-09T04:17:03;2.20;;;1.30;;
25391;SDS011;13329;48.402;11.718;2022-09-09T04:19:31;1.48;;;1.10;;
25391;SDS011;13329;48.402;11.718;2022-09-09T04:21:56;2.38;;;1.50;;
25391;SDS011;13329;48.402;11.718;2022-09-09T04:24:21;2.70;;;1.58;;
25391;SDS011;13329;48.402;11.718;2022-09-09T04:26:47;2.80;;;1.40;;
25391;SDS011;13329;48.402;11.718;2022-09-09T04:29:12;1.38;;;1.08;;
25391;SDS011;13329;48.402;11.718;2022-09-09T04:31:37;4.37;;;1.33;;
25391;SDS011;13329;48.402;11.718;2022-09-09T04:34:06;3.40;;;1.42;;
25391;SDS011;13329;48.402;11.718;2022-09-09T04:36:32;2.17;;;1.67;;
25391;SDS011;13329;48.402;11.718;2022-09-09T04:38:57;1.77;;;1.30;;
25391;SDS011;13329;48.402;11.718;2022-09-09T04:41:22;4.17;;;1.53;;
25391;SDS011;13329;48.402;11.718;2022-09-09T04:43:48;1.38;;;1.13;;
25391;SDS011;13329;48.402;11.718;2022-09-09T04:46:13;1.80;;;1.30;;
25391;SDS011;13329;48.402;11.718;2022-09-09T04:48:39;1.48;;;1.17;;
25391;SDS011;13329;48.402;11.718;2022-09-09T04:51:05;1.75;;;1.23;;
25391;SDS011;13329;48.402;11.718;2022-09-09T04:53:31;1.45;;;1.15;;
25391;SDS011;13329;48.402;11.718;2022-09-09T04:56:02;2.50;;;1.35;;
25391;SDS011;13329;48.402;11.718;2022-09-09T04:58:28;2.67;;;1.58;;
25391;SDS011;13329;48.402;11.718;2022-09-09T05:00:53;3.97;;;1.48;;
25391;SDS011;13329;48.402;11.718;2022-09-09T05:03:18;2.23;;;1.30;;
25391;SDS011;13329;48.402;11.718;2022-09-09T05:05:44;2.40;;;1.35;;
25391;SDS011;13329;48.402;11.718;2022-09-09T05:08:09;2.85;;;1.42;;
25391;SDS011;13329;48.402;11.718;2022-09-09T05:10:36;3.13;;;1.50;;
25391;SDS011;13329;48.402;11.718;2022-09-09T05:13:02;5.07;;;1.98;;
25391;SDS011;13329;48.402;11.718;2022-09-09T05:15:27;5.93;;;1.60;;
25391;SDS011;13329;48.402;11.718;2022-09-09T05:17:52;2.33;;;1.40;;
25391;SDS011;13329;48.402;11.718;2022-09-09T05:20:18;5.13;;;1.90;;
25391;SDS011;13329;48.402;11.718;2022-09-09T05:22:43;5.00;;;2.13;;
25391;SDS011;13329;48.402;11.718;2022-09-09T05:25:08;4.10;;;1.48;;
25391;SDS011;13329;48.402;11.718;2022-09-09T05:27:34;7.13;;;1.50;;
25391;SDS011;13329;48.402;11.718;2022-09-09T05:29:59;2.55;;;1.30;;
25391;SDS011;13329;48.402;11.718;2022-09-09T05:32:24;4.87;;;1.40;;
25391;SDS011;13329;48.402;11.718;2022-09-09T05:34:49;5.70;;;1.65;;
25391;SDS011;13329;48.402;11.718;2022-09-09T05:37:15;2.63;;;1.60;;
25391;SDS011;13329;48.402;11.718;2022-09-09T05:39:41;1.63;;;1.20;;
25391;SDS011;13329;48.402;11.718;2022-09-09T05:42:06;3.75;;;1.52;;
25391;SDS011;13329;48.402;11.718;2022-09-09T05:44:31;6.63;;;1.50;;
25391;SDS011;13329;48.402;11.718;2022-09-09T05:46:57;2.10;;;1.40;;
25391;SDS011;13329;48.402;11.718;2022-09-09T05:49:22;6.07;;;1.60;;
25391;SDS011;13329;48.402;11.718;2022-09-09T05:51:48;5.73;;;1.53;;
25391;SDS011;13329;48.402;11.718;2022-09-09T05:54:13;2.10;;;1.50;;
25391;SDS011;13329;48.402;11.718;2022-09-09T05:56:40;3.33;;;1.40;;
25391;SDS011;13329;48.402;11.718;2022-09-09T05:59:05;3.58;;;1.45;;
25391;SDS011;13329;48.402;11.718;2022-09-09T06:01:32;2.40;;;1.45;;
25391;SDS011;13329;48.402;11.718;2022-09-09T06:03:57;5.70;;;1.75;;
25391;SDS011;13329;48.402;11.718;2022-09-09T06:06:26;2.03;;;1.50;;
25391;SDS011;13329;48.402;11.718;2022-09-09T06:08:53;3.85;;;1.30;;
25391;SDS011;13329;48.402;11.718;2022-09-09T06:11:19;1.92;;;1.27;;
25391;SDS011;13329;48.402;11.718;2022-09-09T06:13:45;4.00;;;1.60;;
25391;SDS011;13329;48.402;11.718;2022-09-09T06:16:11;1.77;;;1.30;;
25391;SDS011;13329;48.402;11.718;2022-09-09T06:18:37;1.65;;;1.30;;
25391;SDS011;13329;48.402;11.718;2022-09-09T06:21:03;5.55;;;1.60;;
25391;SDS011;13329;48.402;11.718;2022-09-09T06:23:29;2.78;;;1.20;;
25391;SDS011;13329;48.402;11.718;2022-09-09T06:26:05;3.15;;;1.40;;
25391;SDS011;13329;48.402;11.718;2022-09-09T06:28:31;3.90;;;1.50;;
25391;SDS011;13329;48.402;11.718;2022-09-09T06:30:57;2.33;;;1.40;;
25391;SDS011;13329;48.402;11.718;2022-09-09T06:33:23;2.25;;;1.38;;
25391;SDS011;13329;48.402;11.718;2022-09-09T06:35:52;2.13;;;1.03;;
25391;SDS011;13329;48.402;11.718;2022-09-09T06:38:18;2.35;;;1.10;;
25391;SDS011;13329;48.402;11.718;2022-09-09T06:40:50;1.83;;;1.08;;
25391;SDS011;13329;48.402;11.718;2022-09-09T06:43:16;2.13;;;1.33;;
25391;SDS011;13329;48.402;11.718;2022-09-09T06:45:41;4.00;;;1.30;;
25391;SDS011;13329;48.402;11.718;2022-09-09T06:48:07;1.60;;;1.00;;
25391;SDS011;13329;48.402;11.718;2022-09-09T06:50:33;4.55;;;1.20;;
25391;SDS011;13329;48.402;11.718;2022-09-09T06:52:59;1.20;;;1.10;;
25391;SDS011;13329;48.402;11.718;2022-09-09T06:55:24;1.63;;;1.10;;
25391;SDS011;13329;48.402;11.718;2022-09-09T06:57:49;2.92;;;1.20;;
25391;SDS011;13329;48.402;11.718;2022-09-09T07:00:16;1.45;;;1.13;;
25391;SDS011;13329;48.402;11.718;2022-09-09T07:02:42;2.00;;;1.10;;
25391;SDS011;13329;48.402;11.718;2022-09-09T07:05:07;2.93;;;1.20;;
25391;SDS011;13329;48.402;11.718;2022-09-09T07:07:33;2.20;;;1.20;;
25391;SDS011;13329;48.402;11.718;2022-09-09T07:09:58;1.13;;;0.70;;
25391;SDS011;13329;48.402;11.718;2022-09-09T07:12:23;3.25;;;1.23;;
25391;SDS011;13329;48.402;11.718;2022-09-09T07:14:48;1.40;;;1.30;;
25391;SDS011;13329;48.402;11.718;2022-09-09T07:17:14;2.38;;;1.30;;
25391;SDS011;13329;48.402;11.718;2022-09-09T07:19:39;1.50;;;1.25;;
25391;SDS011;13329;48.402;11.718;2022-09-09T07:22:04;2.23;;;1.17;;
25391;SDS011;13329;48.402;11.718;2022-09-09T07:24:31;2.63;;;1.40;;
25391;SDS011;13329;48.402;11.718;2022-09-09T07:26:56;2.95;;;1.58;;
25391;SDS011;13329;48.402;11.718;2022-09-09T07:29:22;2.70;;;1.50;;
25391;SDS011;13329;48.402;11.718;2022-09-09T07:31:47;2.37;;;1.43;;
25391;SDS011;13329;48.402;11.718;2022-09-09T07:34:13;2.05;;;1.05;;
25391;SDS011;13329;48.402;11.718;2022-09-09T07:36:38;3.20;;;1.30;;
25391;SDS011;13329;48.402;11.718;2022-09-09T07:39:06;2.95;;;1.40;;
25391;SDS011;13329;48.402;11.718;2022-09-09T07:41:35;3.63;;;1.27;;
25391;SDS011;13329;48.402;11.718;2022-09-09T07:44:04;2.25;;;1.10;;
25391;SDS011;13329;48.402;11.718;2022-09-09T07:46:30;2.58;;;1.35;;
25391;SDS011;13329;48.402;11.718;2022-09-09T07:48:55;4.07;;;1.30;;
25391;SDS011;13329;48.402;11.718;2022-09-09T07:51:23;3.60;;;1.30;;
25391;SDS011;13329;48.402;11.718;2022-09-09T07:53:51;5.43;;;1.38;;
25391;SDS011;13329;48.402;11.718;2022-09-09T07:56:17;3.70;;;1.20;;
25391;SDS011;13329;48.402;11.718;2022-09-09T07:58:44;2.83;;;1.35;;
25391;SDS011;13329;48.402;11.718;2022-09-09T08:01:12;1.08;;;0.85;;
25391;SDS011;13329;48.402;11.718;2022-09-09T08:03:38;2.33;;;1.10;;
25391;SDS011;13329;48.402;11.718;2022-09-09T08:06:04;3.10;;;1.02;;
25391;SDS011;13329;48.402;11.718;2022-09-09T08:08:29;1.83;;;0.80;;
25391;SDS011;13329;48.402;11.718;2022-09-09T08:11:01;1.85;;;1.10;;
25391;SDS011;13329;48.402;11.718;2022-09-09T08:13:26;2.13;;;1.02;;
25391;SDS011;13329;48.402;11.718;2022-09-09T08:15:52;2.17;;;1.15;;
25391;SDS011;13329;48.402;11.718;2022-09-09T08:18:17;4.77;;;0.93;;
25391;SDS011;13329;48.402;11.718;2022-09-09T08:20:42;2.43;;;1.10;;
25391;SDS011;13329;48.402;11.718;2022-09-09T08:23:07;2.07;;;1.10;;
25391;SDS011;13329;48.402;11.718;2022-09-09T08:25:32;1.48;;;0.90;;
25391;SDS011;13329;48.402;11.718;2022-09-09T08:27:59;2.58;;;0.90;;
25391;SDS011;13329;48.402;11.718;2022-09-09T08:30:25;2.03;;;1.00;;
25391;SDS011;13329;48.402;11.718;2022-09-09T08:32:51;3.45;;;0.95;;
25391;SDS011;13329;48.402;11.718;2022-09-09T08:35:16;3.80;;;0.87;;
25391;SDS011;13329;48.402;11.718;2022-09-09T08:37:42;1.77;;;0.80;;
25391;SDS011;13329;48.402;11.718;2022-09-09T08:40:08;1.83;;;1.00;;
25391;SDS011;13329;48.402;11.718;2022-09-09T08:42:37;4.82;;;0.80;;
25391;SDS011;13329;48.402;11.718;2022-09-09T08:45:12;1.08;;;0.90;;
25391;SDS011;13329;48.402;11.718;2022-09-09T08:47:58;1.80;;;0.88;;
25391;SDS011;13329;48.402;11.718;2022-09-09T08:53:05;2.53;;;0.90;;
25391;SDS011;13329;48.402;11.718;2022-09-09T08:55:44;1.45;;;0.90;;
25391;SDS011;13329;48.402;11.718;2022-09-09T09:00:49;2.13;;;0.90;;
25391;SDS011;13329;48.402;11.718;2022-09-09T09:08:31;2.42;;;0.88;;
25391;SDS011;13329;48.402;11.718;2022-09-09T09:10:58;1.70;;;0.93;;
25391;SDS011;13329;48.402;11.718;2022-09-09T09:15:52;1.20;;;1.00;;
25391;SDS011;13329;48.402;11.718;2022-09-09T09:18:20;3.25;;;1.30;;
25391;SDS011;13329;48.402;11.718;2022-09-09T09:23:12;3.80;;;1.10;;
25391;SDS011;13329;48.402;11.718;2022-09-09T09:25:40;3.88;;;1.67;;
25391;SDS011;13329;48.402;11.718;2022-09-09T09:28:17;3.67;;;1.42;;
25391;SDS011;13329;48.402;11.718;2022-09-09T09:33:15;3.17;;;1.63;;
25391;SDS011;13329;48.402;11.718;2022-09-09T09:35:42;2.92;;;1.25;;
25391;SDS011;13329;48.402;11.718;2022-09-09T09:38:20;4.00;;;1.30;;
25391;SDS011;13329;48.402;11.718;2022-09-09T09:40:54;2.58;;;1.15;;
25391;SDS011;13329;48.402;11.718;2022-09-09T09:43:22;3.72;;;1.40;;
25391;SDS011;13329;48.402;11.718;2022-09-09T09:45:48;3.08;;;1.67;;
25391;SDS011;13329;48.402;11.718;2022-09-09T09:48:14;3.33;;;1.23;;
25391;SDS011;13329;48.402;11.718;2022-09-09T09:53:18;2.67;;;1.40;;
25391;SDS011;13329;48.402;11.718;2022-09-09T09:55:48;4.95;;;1.60;;
25391;SDS011;13329;48.402;11.718;2022-09-09T09:58:15;4.63;;;1.95;;
25391;SDS011;13329;48.402;11.718;2022-09-09T10:00:47;4.78;;;1.42;;
25391;SDS011;13329;48.402;11.718;2022-09-09T10:03:21;2.65;;;1.50;;
25391;SDS011;13329;48.402;11.718;2022-09-09T10:05:47;7.25;;;1.58;;
25391;SDS011;13329;48.402;11.718;2022-09-09T10:08:13;2.90;;;1.40;;
25391;SDS011;13329;48.402;11.718;2022-09-09T10:13:20;1.90;;;1.20;;
25391;SDS011;13329;48.402;11.718;2022-09-09T10:24:09;4.60;;;1.20;;
25391;SDS011;13329;48.402;11.718;2022-09-09T10:37:00;4.38;;;1.60;;
25391;SDS011;13329;48.402;11.718;2022-09-09T10:39:39;3.25;;;1.70;;
25391;SDS011;13329;48.402;11.718;2022-09-09T10:42:14;4.18;;;1.50;;
25391;SDS011;13329;48.402;11.718;2022-09-09T10:47:17;2.00;;;1.40;;
25391;SDS011;13329;48.402;11.718;2022-09-09T10:59:54;1.77;;;1.45;;
25391;SDS011;13329;48.402;11.718;2022-09-09T11:02:28;6.25;;;1.80;;
25391;SDS011;13329;48.402;11.718;2022-09-09T11:07:39;1.88;;;1.35;;
25391;SDS011;13329;48.402;11.718;2022-09-09T11:10:25;3.70;;;1.10;;
25391;SDS011;13329;48.402;11.718;2022-09-09T11:12:53;3.97;;;1.30;;
25391;SDS011;13329;48.402;11.718;2022-09-09T11:15:23;2.30;;;1.23;;
25391;SDS011;13329;48.402;11.718;2022-09-09T11:17:58;1.58;;;0.98;;
25391;SDS011;13329;48.402;11.718;2022-09-09T11:20:25;2.25;;;1.50;;
25391;SDS011;13329;48.402;11.718;2022-09-09T11:23:02;4.05;;;1.80;;
25391;SDS011;13329;48.402;11.718;2022-09-09T11:25:36;2.70;;;1.52;;
25391;SDS011;13329;48.402;11.718;2022-09-09T11:28:23;5.18;;;1.35;;
25391;SDS011;13329;48.402;11.718;2022-09-09T11:33:51;2.13;;;1.42;;
25391;SDS011;13329;48.402;11.718;2022-09-09T11:44:11;4.95;;;1.13;;
25391;SDS011;13329;48.402;11.718;2022-09-09T11:46:37;1.13;;;1.00;;
25391;SDS011;13329;48.402;11.718;2022-09-09T11:49:04;1.92;;;1.00;;
25391;SDS011;13329;48.402;11.718;2022-09-09T11:51:31;4.88;;;1.10;;
25391;SDS011;13329;48.402;11.718;2022-09-09T11:54:00;3.95;;;1.00;;
25391;SDS011;13329;48.402;11.718;2022-09-09T11:58:59;4.60;;;1.00;;
25391;SDS011;13329;48.402;11.718;2022-09-09T12:01:28;5.00;;;1.05;;
25391;SDS011;13329;48.402;11.718;2022-09-09T12:04:01;2.90;;;1.13;;
25391;SDS011;13329;48.402;11.718;2022-09-09T12:06:41;3.92;;;1.00;;
25391;SDS011;13329;48.402;11.718;2022-09-09T12:09:15;1.98;;;1.20;;
25391;SDS011;13329;48.402;11.718;2022-09-09T12:11:42;3.92;;;1.35;;
25391;SDS011;13329;48.402;11.718;2022-09-09T12:14:18;3.78;;;1.23;;
25391;SDS011;13329;48.402;11.718;2022-09-09T12:16:43;1.60;;;0.90;;
25391;SDS011;13329;48.402;11.718;2022-09-09T12:21:48;1.33;;;0.90;;
25391;SDS011;13329;48.402;11.718;2022-09-09T12:24:22;2.10;;;0.70;;
25391;SDS011;13329;48.402;11.718;2022-09-09T12:31:46;1.48;;;0.77;;
25391;SDS011;13329;48.402;11.718;2022-09-09T12:36:48;1.73;;;0.70;;
25391;SDS011;13329;48.402;11.718;2022-09-09T12:39:21;1.58;;;0.70;;
25391;SDS011;13329;48.402;11.718;2022-09-09T12:41:50;1.55;;;0.70;;
25391;SDS011;13329;48.402;11.718;2022-09-09T12:44:18;1.20;;;0.60;;
25391;SDS011;13329;48.402;11.718;2022-09-09T12:46:43;4.70;;;0.90;;
25391;SDS011;13329;48.402;11.718;2022-09-09T12:51:53;0.90;;;0.57;;
25391;SDS011;13329;48.402;11.718;2022-09-09T12:54:18;0.65;;;0.47;;
25391;SDS011;13329;48.402;11.718;2022-09-09T12:56:45;1.60;;;0.45;;
25391;SDS011;13329;48.402;11.718;2022-09-09T13:00:03;0.60;;;0.38;;
25391;SDS011;13329;48.402;11.718;2022-09-09T13:01:57;0.40;;;0.30;;
25391;SDS011;13329;48.402;11.718;2022-09-09T13:04:23;0.47;;;0.30;;
25391;SDS011;13329;48.402;11.718;2022-09-09T13:06:48;0.38;;;0.30;;
25391;SDS011;13329;48.402;11.718;2022-09-09T13:09:14;0.52;;;0.30;;
25391;SDS011;13329;48.402;11.718;2022-09-09T13:11:40;0.65;;;0.50;;
25391;SDS011;13329;48.402;11.718;2022-09-09T13:14:16;13.48;;;0.73;;
25391;SDS011;13329;48.402;11.718;2022-09-09T13:16:43;2.65;;;0.70;;
25391;SDS011;13329;48.402;11.718;2022-09-09T13:19:09;0.30;;;0.30;;
25391;SDS011;13329;48.402;11.718;2022-09-09T13:21:35;0.90;;;0.40;;
25391;SDS011;13329;48.402;11.718;2022-09-09T13:24:01;0.65;;;0.35;;
25391;SDS011;13329;48.402;11.718;2022-09-09T13:26:29;0.60;;;0.40;;
25391;SDS011;13329;48.402;11.718;2022-09-09T13:28:55;1.80;;;0.50;;
25391;SDS011;13329;48.402;11.718;2022-09-09T13:31:33;1.80;;;0.50;;
25391;SDS011;13329;48.402;11.718;2022-09-09T13:34:10;0.55;;;0.40;;
25391;SDS011;13329;48.402;11.718;2022-09-09T13:36:35;1.33;;;0.30;;
25391;SDS011;13329;48.402;11.718;2022-09-09T13:39:02;0.47;;;0.33;;
25391;SDS011;13329;48.402;11.718;2022-09-09T13:41:34;2.17;;;0.40;;
25391;SDS011;13329;48.402;11.718;2022-09-09T13:44:00;1.67;;;0.40;;
25391;SDS011;13329;48.402;11.718;2022-09-09T13:46:36;1.67;;;0.60;;
25391;SDS011;13329;48.402;11.718;2022-09-09T13:51:43;1.48;;;0.43;;
25391;SDS011;13329;48.402;11.718;2022-09-09T13:54:12;2.35;;;0.40;;
25391;SDS011;13329;48.402;11.718;2022-09-09T13:56:38;2.95;;;0.47;;
25391;SDS011;13329;48.402;11.718;2022-09-09T13:59:04;1.27;;;0.45;;
25391;SDS011;13329;48.402;11.718;2022-09-09T14:01:30;1.05;;;0.50;;
25391;SDS011;13329;48.402;11.718;2022-09-09T14:03:56;0.40;;;0.30;;
25391;SDS011;13329;48.402;11.718;2022-09-09T14:06:21;0.83;;;0.40;;
25391;SDS011;13329;48.402;11.718;2022-09-09T14:08:51;0.30;;;0.30;;
25391;SDS011;13329;48.402;11.718;2022-09-09T14:11:17;0.50;;;0.32;;
25391;SDS011;13329;48.402;11.718;2022-09-09T14:13:43;1.10;;;0.50;;
25391;SDS011;13329;48.402;11.718;2022-09-09T14:16:08;1.50;;;0.30;;
25391;SDS011;13329;48.402;11.718;2022-09-09T14:18:34;1.98;;;0.47;;
25391;SDS011;13329;48.402;11.718;2022-09-09T14:20:59;0.93;;;0.50;;
25391;SDS011;13329;48.402;11.718;2022-09-09T14:23:25;0.63;;;0.40;;
25391;SDS011;13329;48.402;11.718;2022-09-09T14:25:50;0.90;;;0.30;;
25391;SDS011;13329;48.402;11.718;2022-09-09T14:28:16;0.70;;;0.40;;
25391;SDS011;13329;48.402;11.718;2022-09-09T14:30:42;0.93;;;0.47;;
25391;SDS011;13329;48.402;11.718;2022-09-09T14:33:09;0.47;;;0.40;;
25391;SDS011;13329;48.402;11.718;2022-09-09T14:35:35;0.40;;;0.30;;
25391;SDS011;13329;48.402;11.718;2022-09-09T14:38:01;0.83;;;0.30;;
25391;SDS011;13329;48.402;11.718;2022-09-09T14:40:27;0.45;;;0.20;;
25391;SDS011;13329;48.402;11.718;2022-09-09T14:42:52;0.63;;;0.27;;
25391;SDS011;13329;48.402;11.718;2022-09-09T14:45:17;0.75;;;0.35;;
25391;SDS011;13329;48.402;11.718;2022-09-09T14:47:43;1.17;;;0.40;;
25391;SDS011;13329;48.402;11.718;2022-09-09T14:50:08;1.30;;;0.40;;
25391;SDS011;13329;48.402;11.718;2022-09-09T14:52:33;1.20;;;0.40;;
25391;SDS011;13329;48.402;11.718;2022-09-09T14:54:58;1.52;;;0.30;;
25391;SDS011;13329;48.402;11.718;2022-09-09T14:57:24;1.07;;;0.27;;
25391;SDS011;13329;48.402;11.718;2022-09-09T14:59:49;0.30;;;0.20;;
25391;SDS011;13329;48.402;11.718;2022-09-09T15:02:15;2.10;;;0.30;;
25391;SDS011;13329;48.402;11.718;2022-09-09T15:04:40;0.40;;;0.33;;
25391;SDS011;13329;48.402;11.718;2022-09-09T15:07:05;1.20;;;0.43;;
25391;SDS011;13329;48.402;11.718;2022-09-09T15:09:30;0.20;;;0.20;;
25391;SDS011;13329;48.402;11.718;2022-09-09T15:11:55;1.70;;;0.40;;
25391;SDS011;13329;48.402;11.718;2022-09-09T15:14:21;0.40;;;0.30;;
25391;SDS011;13329;48.402;11.718;2022-09-09T15:16:49;0.67;;;0.30;;
25391;SDS011;13329;48.402;11.718;2022-09-09T15:19:14;1.45;;;0.43;;
25391;SDS011;13329;48.402;11.718;2022-09-09T15:21:39;0.70;;;0.40;;
25391;SDS011;13329;48.402;11.718;2022-09-09T15:24:07;3.43;;;0.40;;
25391;SDS011;13329;48.402;11.718;2022-09-09T15:26:33;1.00;;;0.35;;
25391;SDS011;13329;48.402;11.718;2022-09-09T15:28:58;0.60;;;0.30;;
25391;SDS011;13329;48.402;11.718;2022-09-09T15:31:25;1.08;;;0.68;;
25391;SDS011;13329;48.402;11.718;2022-09-09T15:36:20;1.85;;;0.45;;
25391;SDS011;13329;48.402;11.718;2022-09-09T15:38:45;1.40;;;0.50;;
25391;SDS011;13329;48.402;11.718;2022-09-09T15:41:11;0.35;;;0.28;;
25391;SDS011;13329;48.402;11.718;2022-09-09T15:43:37;0.30;;;0.30;;
25391;SDS011;13329;48.402;11.718;2022-09-09T15:46:14;0.10;;;0.10;;
25391;SDS011;13329;48.402;11.718;2022-09-09T15:48:49;0.60;;;0.50;;
25391;SDS011;13329;48.402;11.718;2022-09-09T15:51:15;1.52;;;0.38;;
25391;SDS011;13329;48.402;11.718;2022-09-09T15:53:40;2.72;;;0.32;;
25391;SDS011;13329;48.402;11.718;2022-09-09T15:56:06;1.20;;;0.43;;
25391;SDS011;13329;48.402;11.718;2022-09-09T15:58:31;0.95;;;0.40;;
25391;SDS011;13329;48.402;11.718;2022-09-09T16:01:03;2.72;;;0.40;;
25391;SDS011;13329;48.402;11.718;2022-09-09T16:03:29;2.45;;;0.68;;
25391;SDS011;13329;48.402;11.718;2022-09-09T16:05:54;0.50;;;0.30;;
25391;SDS011;13329;48.402;11.718;2022-09-09T16:08:20;0.50;;;0.20;;
25391;SDS011;13329;48.402;11.718;2022-09-09T16:10:45;1.20;;;0.43;;
25391;SDS011;13329;48.402;11.718;2022-09-09T16:13:10;1.42;;;0.30;;
25391;SDS011;13329;48.402;11.718;2022-09-09T16:15:38;0.95;;;0.22;;
25391;SDS011;13329;48.402;11.718;2022-09-09T16:18:03;1.38;;;0.40;;
25391;SDS011;13329;48.402;11.718;2022-09-09T16:20:28;0.43;;;0.33;;
25391;SDS011;13329;48.402;11.718;2022-09-09T16:22:53;0.83;;;0.30;;
25391;SDS011;13329;48.402;11.718;2022-09-09T16:25:19;2.13;;;0.53;;
25391;SDS011;13329;48.402;11.718;2022-09-09T16:27:44;0.73;;;0.30;;
25391;SDS011;13329;48.402;11.718;2022-09-09T16:30:09;0.43;;;0.30;;
25391;SDS011;13329;48.402;11.718;2022-09-09T16:32:35;3.22;;;0.60;;
25391;SDS011;13329;48.402;11.718;2022-09-09T16:35:00;3.13;;;0.50;;
25391;SDS011;13329;48.402;11.718;2022-09-09T16:37:25;1.20;;;0.43;;
25391;SDS011;13329;48.402;11.718;2022-09-09T16:39:50;0.82;;;0.50;;
25391;SDS011;13329;48.402;11.718;2022-09-09T16:42:16;3.33;;;0.60;;
25391;SDS011;13329;48.402;11.718;2022-09-09T16:44:41;1.88;;;0.47;;
25391;SDS011;13329;48.402;11.718;2022-09-09T16:47:07;1.08;;;0.50;;